createdAt,value
2022-12-17T00:48:18.839Z,100792.22
2022-12-17T00:51:04.260Z,100784.75
2022-12-17T00:53:49.731Z,100792.25
2022-12-17T00:56:35.033Z,100800.78
2022-12-17T00:59:20.368Z,100800.16
2022-12-17T01:02:05.790Z,100801.13
2022-12-17T01:04:52.349Z,100806.00
2022-12-17T01:07:52.295Z,100802.56
2022-12-17T01:10:37.501Z,100811.19
2022-12-17T01:13:22.755Z,100810.84
2022-12-17T01:16:08.052Z,100810.56
2022-12-17T01:18:53.378Z,100815.59
2022-12-17T01:21:42.860Z,100818.41
2022-12-17T01:24:28.104Z,100814.63
2022-12-17T01:27:13.628Z,100811.00
2022-12-17T01:29:58.692Z,100819.97
2022-12-17T01:32:43.198Z,100814.16
2022-12-17T01:35:28.654Z,100815.56
2022-12-17T01:38:15.175Z,100826.88
2022-12-17T01:41:00.569Z,100817.84
2022-12-17T01:43:51.057Z,100821.09
2022-12-17T01:46:36.358Z,100832.03
2022-12-17T01:49:21.771Z,100837.34
2022-12-17T01:52:07.652Z,100841.84
2022-12-17T01:55:03.121Z,100843.59
2022-12-17T01:57:48.471Z,100846.59
2022-12-17T02:00:35.403Z,100847.06
2022-12-17T02:03:20.830Z,100852.16
2022-12-17T02:06:14.075Z,100849.59
2022-12-17T02:09:04.968Z,100861.19
2022-12-17T02:11:55.763Z,100856.03
2022-12-17T02:14:45.248Z,100850.72
2022-12-17T02:17:33.461Z,100845.06
2022-12-17T02:20:32.442Z,100846.56
2022-12-17T02:23:25.385Z,100853.38
2022-12-17T02:26:12.245Z,100855.50
2022-12-17T02:29:01.763Z,100876.84
2022-12-17T02:31:48.347Z,100884.81
2022-12-17T02:34:33.630Z,100874.97
2022-12-17T02:37:18.875Z,100869.50
2022-12-17T02:40:04.391Z,100867.00
2022-12-17T02:42:50.190Z,100886.53
2022-12-17T02:45:37.669Z,100877.38
2022-12-17T02:48:23.498Z,100882.75
2022-12-17T02:51:08.728Z,100868.47
2022-12-17T02:53:54.063Z,100882.72
2022-12-17T02:56:39.346Z,100874.94
2022-12-17T02:59:24.607Z,100879.22
2022-12-17T03:02:11.467Z,100875.03
2022-12-17T03:05:02.980Z,100872.75
2022-12-17T03:07:56.170Z,100873.00
2022-12-17T03:10:41.437Z,100887.69
2022-12-17T03:13:26.754Z,100877.16
2022-12-17T03:16:11.970Z,100875.16
2022-12-17T03:18:57.783Z,100893.06
2022-12-17T03:21:43.301Z,100883.03
2022-12-17T03:24:28.766Z,100896.97
2022-12-17T03:27:14.255Z,100898.19
2022-12-17T03:29:59.596Z,100907.03
2022-12-17T03:32:59.562Z,100913.84
2022-12-17T03:35:46.297Z,100911.81
2022-12-17T03:38:31.959Z,100904.69
2022-12-17T03:41:17.519Z,100911.91
2022-12-17T03:44:02.942Z,100906.00
2022-12-17T03:46:48.015Z,100898.56
2022-12-17T03:49:33.240Z,100909.22
2022-12-17T03:52:19.915Z,100906.69
2022-12-17T03:55:05.315Z,100911.81
2022-12-17T03:57:50.562Z,100916.09
2022-12-17T04:00:36.020Z,100920.06
2022-12-17T04:03:21.627Z,100923.88
2022-12-17T04:06:06.741Z,100931.22
2022-12-17T04:08:53.305Z,100933.28
2022-12-17T04:11:38.560Z,100933.06
2022-12-17T04:14:23.713Z,100936.97
2022-12-17T04:17:09.153Z,100932.88
2022-12-17T04:19:54.665Z,100936.66
2022-12-17T04:22:40.219Z,100940.50
2022-12-17T04:25:27.251Z,100935.78
2022-12-17T04:28:12.325Z,100937.97
2022-12-17T04:30:57.819Z,100941.53
2022-12-17T04:33:43.015Z,100936.34
2022-12-17T04:36:28.607Z,100934.50
2022-12-17T04:39:13.938Z,100942.56
2022-12-17T04:42:00.602Z,100946.03
2022-12-17T04:44:45.941Z,100940.34
2022-12-17T04:47:31.187Z,100934.47
2022-12-17T04:50:16.457Z,100940.16
2022-12-17T04:53:01.749Z,100955.03
2022-12-17T04:55:47.028Z,100959.22
2022-12-17T04:58:33.777Z,100963.13
2022-12-17T05:01:19.046Z,100961.84
2022-12-17T05:04:04.361Z,100957.06
2022-12-17T05:06:49.376Z,100969.69
2022-12-17T05:09:34.812Z,100974.13
2022-12-17T05:12:25.536Z,100970.66
2022-12-17T05:15:11.890Z,100971.06
2022-12-17T05:17:57.218Z,100969.97
2022-12-17T05:20:47.991Z,100972.66
2022-12-17T05:23:29.636Z,100986.59
2022-12-17T05:26:21.876Z,100984.16
2022-12-17T05:29:11.214Z,100992.25
2022-12-17T05:32:02.247Z,100986.38
2022-12-17T05:34:47.611Z,100989.78
2022-12-17T05:37:32.877Z,100988.53
2022-12-17T05:40:18.302Z,100989.09
2022-12-17T05:43:13.277Z,100995.44
2022-12-17T05:45:58.681Z,100988.97
2022-12-17T05:48:45.367Z,100988.25
2022-12-17T05:51:34.489Z,101001.38
2022-12-17T05:54:22.491Z,100988.56
2022-12-17T05:57:07.910Z,100996.72
2022-12-17T05:59:53.326Z,100997.94
2022-12-17T06:02:38.839Z,101011.16
2022-12-17T06:05:26.250Z,101013.91
2022-12-17T06:08:11.673Z,100998.44
2022-12-17T06:10:57.092Z,101005.38
2022-12-17T06:13:42.455Z,101010.72
2022-12-17T06:16:27.864Z,101005.59
2022-12-17T06:19:13.240Z,101020.34
2022-12-17T06:22:00.480Z,101016.28
2022-12-17T06:24:46.366Z,101026.81
2022-12-17T06:27:31.556Z,101034.81
2022-12-17T06:30:18.915Z,101037.38
2022-12-17T06:33:04.959Z,101043.25
2022-12-17T06:35:50.353Z,101037.94
2022-12-17T06:38:36.994Z,101032.78
2022-12-17T06:41:22.212Z,101038.75
2022-12-17T06:44:07.776Z,101042.47
2022-12-17T06:46:53.181Z,101056.78
2022-12-17T06:49:38.614Z,101057.78
2022-12-17T06:52:26.279Z,101071.91
2022-12-17T06:55:12.884Z,101076.63
2022-12-17T06:57:58.183Z,101082.50
2022-12-17T07:00:43.582Z,101078.47
2022-12-17T07:03:29.469Z,101081.69
2022-12-17T07:06:14.561Z,101089.91
2022-12-17T07:08:59.885Z,101092.00
2022-12-17T07:11:45.706Z,101086.97
2022-12-17T07:14:31.230Z,101096.94
2022-12-17T07:17:16.575Z,101099.94
2022-12-17T07:20:02.018Z,101105.75
2022-12-17T07:22:47.244Z,101104.94
2022-12-17T07:25:32.567Z,101119.13
2022-12-17T07:28:19.234Z,101117.94
2022-12-17T07:31:04.541Z,101120.94
2022-12-17T07:33:49.989Z,101116.63
2022-12-17T07:36:35.257Z,101125.00
2022-12-17T07:39:20.683Z,101113.50
2022-12-17T07:42:06.102Z,101126.66
2022-12-17T07:44:52.611Z,101130.16
2022-12-17T07:47:37.895Z,101136.47
2022-12-17T07:50:24.003Z,101152.91
2022-12-17T07:53:19.819Z,101139.19
2022-12-17T07:56:05.045Z,101154.06
2022-12-17T07:58:50.365Z,101150.94
2022-12-17T08:01:37.026Z,101154.81
2022-12-17T08:04:22.324Z,101154.41
2022-12-17T08:07:11.247Z,101150.56
2022-12-17T08:09:58.416Z,101148.56
2022-12-17T08:12:43.714Z,101161.03
2022-12-17T08:15:29.009Z,101155.78
2022-12-17T08:18:24.545Z,101156.63
2022-12-17T08:21:11.962Z,101169.44
2022-12-17T08:23:56.946Z,101181.09
2022-12-17T08:26:47.351Z,101174.09
2022-12-17T08:29:33.370Z,101176.66
2022-12-17T08:32:18.525Z,101188.19
2022-12-17T08:35:05.186Z,101184.88
2022-12-17T08:37:50.498Z,101198.16
2022-12-17T08:40:35.760Z,101194.50
2022-12-17T08:43:21.173Z,101202.50
2022-12-17T08:46:06.526Z,101197.34
2022-12-17T08:48:52.156Z,101193.69
2022-12-17T08:51:38.864Z,101192.47
2022-12-17T08:54:24.072Z,101200.00
2022-12-17T08:57:09.393Z,101209.66
2022-12-17T08:59:54.693Z,101200.00
2022-12-17T09:02:40.198Z,101204.78
2022-12-17T09:05:26.213Z,101208.38
2022-12-17T09:08:18.296Z,101201.97
2022-12-17T09:11:03.343Z,101215.28
2022-12-17T09:13:48.465Z,101213.06
2022-12-17T09:16:33.790Z,101220.69
2022-12-17T09:19:18.904Z,101230.38
2022-12-17T09:22:04.166Z,101226.84
2022-12-17T09:24:50.340Z,101219.34
2022-12-17T09:27:35.678Z,101228.06
2022-12-17T09:30:20.928Z,101228.25
2022-12-17T09:33:06.016Z,101232.44
2022-12-17T09:35:51.181Z,101234.72
2022-12-17T09:38:44.615Z,101237.59
2022-12-17T09:41:38.160Z,101243.66
2022-12-17T09:44:25.499Z,101240.97
2022-12-17T09:47:14.289Z,101239.25
2022-12-17T09:49:59.845Z,101239.16
2022-12-17T09:52:47.086Z,101245.72
2022-12-17T09:55:38.962Z,101239.66
2022-12-17T09:58:42.553Z,101249.53
2022-12-17T10:01:32.953Z,101258.78
2022-12-17T10:04:18.738Z,101256.16
2022-12-17T10:07:03.729Z,101254.78
2022-12-17T10:09:50.244Z,101259.72
2022-12-17T10:12:37.103Z,101256.66
2022-12-17T10:15:25.533Z,101251.97
2022-12-17T10:18:10.768Z,101254.66
2022-12-17T10:20:57.789Z,101251.56
2022-12-17T10:23:43.999Z,101244.25
2022-12-17T10:26:35.305Z,101240.16
2022-12-17T10:29:27.811Z,101247.25
2022-12-17T10:32:24.930Z,101247.50
2022-12-17T10:35:18.241Z,101246.75
2022-12-17T10:38:03.467Z,101247.38
2022-12-17T10:40:51.343Z,101257.44
2022-12-17T10:43:44.386Z,101253.56
2022-12-17T10:46:29.904Z,101261.44
2022-12-17T10:49:30.728Z,101265.50
2022-12-17T10:52:20.087Z,101267.22
2022-12-17T10:55:14.984Z,101258.16
2022-12-17T10:58:00.465Z,101260.44
2022-12-17T11:00:50.433Z,101260.81
2022-12-17T11:03:48.456Z,101262.25
2022-12-17T11:06:42.419Z,101262.38
2022-12-17T11:09:37.295Z,101269.31
2022-12-17T11:12:30.123Z,101259.56
2022-12-17T11:15:19.863Z,101268.06
2022-12-17T11:18:10.964Z,101272.78
2022-12-17T11:21:03.338Z,101268.06
2022-12-17T11:23:51.138Z,101275.69
2022-12-17T11:26:37.546Z,101273.59
2022-12-17T11:29:22.731Z,101272.53
2022-12-17T11:32:17.534Z,101265.53
2022-12-17T11:35:14.979Z,101280.38
2022-12-17T11:38:04.882Z,101281.03
2022-12-17T11:40:55.893Z,101283.00
2022-12-17T11:43:45.888Z,101279.84
2022-12-17T11:46:41.812Z,101273.44
2022-12-17T11:49:32.724Z,101276.81
2022-12-17T11:52:21.149Z,101284.78
2022-12-17T11:55:13.107Z,101283.41
2022-12-17T11:58:06.250Z,101282.69
2022-12-17T12:00:57.921Z,101283.78
2022-12-17T12:03:49.034Z,101275.31
2022-12-17T12:06:45.856Z,101281.06
2022-12-17T12:09:36.393Z,101284.28
2022-12-17T12:12:29.224Z,101277.47
2022-12-17T12:15:24.405Z,101277.16
2022-12-17T12:18:14.240Z,101284.72
2022-12-17T12:21:11.259Z,101290.34
2022-12-17T12:24:06.592Z,101283.13
2022-12-17T12:26:58.917Z,101282.44
2022-12-17T12:29:49.781Z,101287.63
2022-12-17T12:32:51.783Z,101296.25
2022-12-17T12:35:40.109Z,101292.75
2022-12-17T12:38:29.192Z,101297.38
2022-12-17T12:41:18.120Z,101298.81
2022-12-17T12:44:06.997Z,101299.03
2022-12-17T12:47:02.085Z,101294.63
2022-12-17T12:50:01.620Z,101302.09
2022-12-17T12:52:46.897Z,101307.34
2022-12-17T12:55:32.017Z,101305.03
2022-12-17T12:58:19.990Z,101310.53
2022-12-17T13:01:12.833Z,101300.19
2022-12-17T13:03:59.589Z,101297.16
2022-12-17T13:06:43.538Z,101305.06
2022-12-17T13:09:35.451Z,101314.63
2022-12-17T13:12:20.554Z,101315.63
2022-12-17T13:14:53.110Z,101302.84
2022-12-17T13:17:31.689Z,101300.91
2022-12-17T13:20:24.726Z,101314.47
2022-12-17T13:22:54.764Z,101308.38
2022-12-17T13:25:23.687Z,101317.97
2022-12-17T13:27:51.773Z,101312.53
2022-12-17T13:30:31.162Z,101309.81
2022-12-17T13:33:08.148Z,101306.84
2022-12-17T13:35:42.170Z,101309.06
2022-12-17T13:38:17.988Z,101313.38
2022-12-17T13:40:47.885Z,101322.63
2022-12-17T13:43:20.876Z,101313.91
2022-12-17T13:45:48.734Z,101325.41
2022-12-17T13:48:24.154Z,101327.06
2022-12-17T13:50:55.920Z,101324.59
2022-12-17T13:53:24.824Z,101334.81
2022-12-17T13:55:53.090Z,101337.47
2022-12-17T13:58:25.781Z,101339.94
2022-12-17T14:01:04.291Z,101335.75
2022-12-17T14:03:57.089Z,101336.00
2022-12-17T14:06:19.824Z,101335.91
2022-12-17T14:08:49.337Z,101332.09
2022-12-17T14:11:34.847Z,101343.00
2022-12-17T14:14:03.557Z,101340.09
2022-12-17T14:16:31.832Z,101345.38
2022-12-17T14:19:00.253Z,101343.78
2022-12-17T14:21:29.556Z,101338.03
2022-12-17T14:23:58.826Z,101343.69
2022-12-17T14:26:26.376Z,101344.94
2022-12-17T14:28:55.421Z,101354.84
2022-12-17T14:31:27.031Z,101356.91
2022-12-17T14:34:07.083Z,101358.97
2022-12-17T14:36:35.396Z,101360.22
2022-12-17T14:39:11.007Z,101366.50
2022-12-17T14:41:57.215Z,101362.47
2022-12-17T14:44:27.388Z,101366.63
2022-12-17T14:47:08.459Z,101356.44
2022-12-17T14:49:36.013Z,101370.00
2022-12-17T14:52:13.922Z,101374.75
2022-12-17T14:54:47.275Z,101372.88
2022-12-17T14:57:21.666Z,101377.97
2022-12-17T14:59:49.290Z,101376.31
2022-12-17T15:02:23.764Z,101375.63
2022-12-17T15:04:52.905Z,101373.31
2022-12-17T15:07:25.245Z,101380.91
2022-12-17T15:09:55.438Z,101381.09
2022-12-17T15:12:23.896Z,101388.34
2022-12-17T15:14:51.551Z,101378.34
2022-12-17T15:17:19.142Z,101376.97
2022-12-17T15:19:54.147Z,101387.19
2022-12-17T15:22:23.541Z,101393.28
2022-12-17T15:24:51.303Z,101395.81
2022-12-17T15:27:20.266Z,101392.16
2022-12-17T15:29:47.890Z,101402.75
2022-12-17T15:32:19.604Z,101400.34
2022-12-17T15:34:47.193Z,101406.47
2022-12-17T15:37:17.015Z,101404.03
2022-12-17T15:39:46.302Z,101400.94
2022-12-17T15:42:31.704Z,101402.13
2022-12-17T15:45:00.607Z,101402.28
2022-12-17T15:47:28.149Z,101404.63
2022-12-17T15:49:55.728Z,101400.88
2022-12-17T15:52:23.885Z,101408.34
2022-12-17T15:54:51.504Z,101410.59
2022-12-17T15:57:19.115Z,101401.19
2022-12-17T15:59:46.767Z,101412.25
2022-12-17T16:02:15.813Z,101413.97
2022-12-17T16:04:43.528Z,101412.56
2022-12-17T16:07:11.075Z,101409.41
2022-12-17T16:09:38.618Z,101420.28
2022-12-17T16:12:06.621Z,101420.25
2022-12-17T16:14:34.420Z,101421.28
2022-12-17T16:17:01.961Z,101419.22
2022-12-17T16:19:30.854Z,101419.78
2022-12-17T16:21:58.446Z,101428.47
2022-12-17T16:24:26.089Z,101425.97
2022-12-17T16:26:53.779Z,101431.25
2022-12-17T16:29:21.496Z,101424.66
2022-12-17T16:31:50.101Z,101429.13
2022-12-17T16:34:17.915Z,101425.25
2022-12-17T16:36:46.885Z,101428.59
2022-12-17T16:39:17.507Z,101425.00
2022-12-17T16:41:45.255Z,101427.63
2022-12-17T16:44:12.941Z,101425.56
2022-12-17T16:46:42.479Z,101432.28
2022-12-17T16:49:11.623Z,101422.31
2022-12-17T16:51:39.397Z,101427.16
2022-12-17T16:54:09.223Z,101433.84
2022-12-17T16:56:40.370Z,101437.41
2022-12-17T16:59:09.094Z,101430.81
2022-12-17T17:01:37.672Z,101438.91
2022-12-17T17:04:06.461Z,101437.19
2022-12-17T17:06:34.331Z,101438.75
2022-12-17T17:09:04.247Z,101434.66
2022-12-17T17:11:33.200Z,101430.56
2022-12-17T17:14:00.921Z,101433.13
2022-12-17T17:16:28.915Z,101439.44
2022-12-17T17:18:56.785Z,101443.22
2022-12-17T17:21:28.042Z,101457.75
2022-12-17T17:23:57.926Z,101452.97
2022-12-17T17:26:26.280Z,101467.09
2022-12-17T17:28:55.341Z,101463.50
2022-12-17T17:31:26.734Z,101477.78
2022-12-17T17:33:58.400Z,101463.81
2022-12-17T17:36:27.452Z,101473.53
2022-12-17T17:38:55.601Z,101472.28
2022-12-17T17:41:26.570Z,101474.06
2022-12-17T17:43:56.083Z,101471.53
2022-12-17T17:46:24.070Z,101485.25
2022-12-17T17:48:56.730Z,101479.00
2022-12-17T17:51:59.740Z,101479.28
2022-12-17T17:54:14.505Z,101486.50
2022-12-17T17:56:43.538Z,101492.88
2022-12-17T17:59:14.474Z,101501.56
2022-12-17T18:01:43.475Z,101501.88
2022-12-17T18:04:13.984Z,101505.22
2022-12-17T18:07:08.840Z,101501.31
2022-12-17T18:09:30.825Z,101507.53
2022-12-17T18:12:18.354Z,101507.22
2022-12-17T18:15:11.826Z,101514.91
2022-12-17T18:17:34.679Z,101514.25
2022-12-17T18:20:02.249Z,101509.44
2022-12-17T18:22:29.904Z,101515.91
2022-12-17T18:24:57.601Z,101512.38
2022-12-17T18:27:25.162Z,101520.50
2022-12-17T18:29:54.120Z,101517.97
2022-12-17T18:32:21.914Z,101527.44
2022-12-17T18:34:49.581Z,101530.47
2022-12-17T18:37:17.169Z,101539.94
2022-12-17T18:39:44.817Z,101545.38
2022-12-17T18:42:30.272Z,101543.34
2022-12-17T18:44:59.197Z,101541.69
2022-12-17T18:47:27.042Z,101536.66
2022-12-17T18:49:54.991Z,101536.69
2022-12-17T18:52:23.633Z,101538.28
2022-12-17T18:54:51.209Z,101536.38
2022-12-17T18:57:18.753Z,101547.97
2022-12-17T18:59:46.304Z,101549.84
2022-12-17T19:02:16.004Z,101560.56
2022-12-17T19:04:43.825Z,101564.09
2022-12-17T19:07:11.677Z,101572.59
2022-12-17T19:09:40.435Z,101572.13
2022-12-17T19:12:09.528Z,101580.59
2022-12-17T19:14:37.508Z,101574.16
2022-12-17T19:17:05.940Z,101576.34
2022-12-17T19:19:34.957Z,101571.50
2022-12-17T19:22:03.457Z,101572.47
2022-12-17T19:24:31.030Z,101572.25
2022-12-17T19:26:58.575Z,101579.56
2022-12-17T19:29:26.165Z,101569.16
2022-12-17T19:31:53.880Z,101570.13
2022-12-17T19:34:21.644Z,101559.78
2022-12-17T19:36:50.567Z,101566.16
2022-12-17T19:39:19.856Z,101574.97
2022-12-17T19:41:47.903Z,101592.91
2022-12-17T19:44:16.868Z,101580.78
2022-12-17T19:46:44.759Z,101588.13
2022-12-17T19:49:12.796Z,101583.38
2022-12-17T19:51:43.852Z,101586.19
2022-12-17T19:54:14.699Z,101591.00
2022-12-17T19:56:43.515Z,101598.09
2022-12-17T19:59:12.052Z,101597.47
2022-12-17T20:01:43.096Z,101601.91
2022-12-17T20:04:12.838Z,101596.78
2022-12-17T20:06:40.406Z,101606.38
2022-12-17T20:09:08.195Z,101609.00
2022-12-17T20:11:37.587Z,101610.41
2022-12-17T20:14:07.530Z,101610.41
2022-12-17T20:16:36.795Z,101616.41
2022-12-17T20:19:09.022Z,101616.63
2022-12-17T20:21:36.922Z,101616.56
2022-12-17T20:24:05.887Z,101621.75
2022-12-17T20:26:33.980Z,101611.78
2022-12-17T20:29:02.954Z,101612.63
2022-12-17T20:31:30.765Z,101610.63
2022-12-17T20:33:59.622Z,101609.34
2022-12-17T20:36:27.555Z,101609.25
2022-12-17T20:38:55.158Z,101611.38
2022-12-17T20:41:24.183Z,101621.09
2022-12-17T20:43:52.855Z,101613.47
2022-12-17T20:46:23.688Z,101619.22
2022-12-17T20:48:58.479Z,101621.38
2022-12-17T20:51:27.503Z,101610.38
2022-12-17T20:53:56.363Z,101616.69
2022-12-17T20:56:28.020Z,101626.38
2022-12-17T20:58:56.501Z,101619.16
2022-12-17T21:01:27.153Z,101619.47
2022-12-17T21:03:55.915Z,101624.34
2022-12-17T21:06:25.754Z,101615.53
2022-12-17T21:08:55.733Z,101627.59
2022-12-17T21:11:26.946Z,101629.91
2022-12-17T21:13:56.184Z,101633.03
2022-12-17T21:16:27.599Z,101636.97
2022-12-17T21:18:55.891Z,101639.31
2022-12-17T21:21:26.063Z,101644.47
2022-12-17T21:23:53.969Z,101646.16
2022-12-17T21:26:23.641Z,101635.03
2022-12-17T21:28:54.006Z,101639.31
2022-12-17T21:31:23.946Z,101649.25
2022-12-17T21:33:55.275Z,101646.63
2022-12-17T21:36:24.043Z,101646.94
2022-12-17T21:38:51.798Z,101651.97
2022-12-17T21:41:20.947Z,101651.31
2022-12-17T21:43:48.527Z,101650.25
2022-12-17T21:46:16.254Z,101653.16
2022-12-17T21:48:44.466Z,101662.41
2022-12-17T21:51:14.370Z,101668.94
2022-12-17T21:53:43.593Z,101671.72
2022-12-17T21:56:12.719Z,101670.59
2022-12-17T21:58:41.514Z,101671.28
2022-12-17T22:01:18.681Z,101674.53
2022-12-17T22:03:50.232Z,101676.97
2022-12-17T22:06:28.955Z,101673.31
2022-12-17T22:09:01.260Z,101690.69
2022-12-17T22:11:32.465Z,101689.91
2022-12-17T22:14:07.507Z,101685.13
2022-12-17T22:16:38.996Z,101680.34
2022-12-17T22:19:07.307Z,101682.63
2022-12-17T22:21:37.607Z,101694.53
2022-12-17T22:24:06.414Z,101696.16
2022-12-17T22:26:34.457Z,101710.38
2022-12-17T22:29:03.156Z,101695.19
2022-12-17T22:31:48.073Z,101702.94
2022-12-17T22:35:32.225Z,101697.44
2022-12-17T22:39:17.923Z,101700.31
2022-12-17T22:42:44.706Z,101702.69
2022-12-17T22:44:43.672Z,101710.94
2022-12-17T22:45:45.585Z,101714.09
2022-12-17T22:48:13.723Z,101709.22
2022-12-17T22:50:47.152Z,101704.44
2022-12-17T22:53:30.837Z,101706.56
2022-12-17T22:56:14.575Z,101706.41
2022-12-17T22:58:53.024Z,101707.38
2022-12-17T23:01:23.105Z,101708.91
2022-12-17T23:03:51.225Z,101713.13
2022-12-17T23:06:19.244Z,101712.91
2022-12-17T23:08:48.172Z,101706.78
2022-12-17T23:11:17.769Z,101712.47
2022-12-17T23:13:46.245Z,101702.34
2022-12-17T23:16:14.649Z,101700.78
2022-12-17T23:18:42.607Z,101691.91
2022-12-17T23:21:11.652Z,101698.06
2022-12-17T23:23:39.598Z,101700.09
2022-12-17T23:26:10.215Z,101710.28
2022-12-17T23:28:37.815Z,101706.63
2022-12-17T23:31:09.911Z,101711.16
2022-12-17T23:33:38.546Z,101709.72
2022-12-17T23:36:08.001Z,101704.88
2022-12-17T23:38:35.787Z,101706.28
2022-12-17T23:41:05.528Z,101708.81
2022-12-17T23:43:34.853Z,101708.03
2022-12-17T23:46:02.646Z,101710.78
2022-12-17T23:48:32.003Z,101712.94
2022-12-17T23:50:59.594Z,101715.84
2022-12-17T23:53:27.594Z,101713.56
2022-12-17T23:55:55.288Z,101712.94
2022-12-17T23:58:24.815Z,101702.47
